createdAt,value
2018-04-24T00:00:37.726Z,10.85
2018-04-24T00:03:06.083Z,10.82
2018-04-24T00:05:34.398Z,10.74
2018-04-24T00:08:02.720Z,10.69
2018-04-24T00:10:31.811Z,10.67
2018-04-24T00:13:00.938Z,10.65
2018-04-24T00:15:29.246Z,10.57
2018-04-24T00:17:57.648Z,10.54
2018-04-24T00:20:25.958Z,10.56
2018-04-24T00:22:54.298Z,10.59
2018-04-24T00:25:22.623Z,10.58
2018-04-24T00:27:50.930Z,10.55
2018-04-24T00:30:19.259Z,10.49
2018-04-24T00:32:48.343Z,10.55
2018-04-24T00:35:17.442Z,10.62
2018-04-24T00:37:46.527Z,10.74
2018-04-24T00:40:14.876Z,10.89
2018-04-24T00:42:43.185Z,10.91
2018-04-24T00:45:12.273Z,10.88
2018-04-24T00:47:40.590Z,10.89
2018-04-24T00:50:08.907Z,10.92
2018-04-24T00:52:37.241Z,10.96
2018-04-24T00:55:05.604Z,11.01
2018-04-24T00:57:33.982Z,11.10
2018-04-24T01:00:03.079Z,11.22
2018-04-24T01:02:31.452Z,11.29
2018-04-24T01:05:00.529Z,11.33
2018-04-24T01:07:28.848Z,11.35
2018-04-24T01:09:57.185Z,11.38
2018-04-24T01:12:25.523Z,11.36
2018-04-24T01:14:53.871Z,11.37
2018-04-24T01:17:22.219Z,11.34
2018-04-24T01:19:51.385Z,11.28
2018-04-24T01:22:19.726Z,11.22
2018-04-24T01:24:48.034Z,11.15
2018-04-24T01:27:16.391Z,11.11
2018-04-24T01:29:44.719Z,11.19
2018-04-24T01:32:13.096Z,11.32
2018-04-24T01:34:41.416Z,11.43
2018-04-24T01:37:09.771Z,11.54
2018-04-24T01:39:38.847Z,11.64
2018-04-24T01:42:07.168Z,11.67
2018-04-24T01:44:35.536Z,11.62
2018-04-24T01:47:03.866Z,11.60
2018-04-24T01:49:32.210Z,11.60
2018-04-24T01:52:01.344Z,11.45
2018-04-24T01:54:29.712Z,11.41
2018-04-24T01:56:58.439Z,11.11
2018-04-24T01:59:27.537Z,11.17
2018-04-24T02:01:56.663Z,11.15
2018-04-24T02:04:25.006Z,11.16
2018-04-24T02:06:54.095Z,11.17
2018-04-24T02:09:23.193Z,11.14
2018-04-24T02:11:52.353Z,11.00
2018-04-24T02:14:20.719Z,10.89
2018-04-24T02:16:49.037Z,10.75
2018-04-24T02:19:18.164Z,10.64
2018-04-24T02:21:46.510Z,10.58
2018-04-24T02:24:15.590Z,10.55
2018-04-24T02:26:43.913Z,10.53
2018-04-24T02:29:12.279Z,10.46
2018-04-24T02:31:40.620Z,10.47
2018-04-24T02:34:08.955Z,10.44
2018-04-24T02:36:37.300Z,10.41
2018-04-24T02:39:06.500Z,10.32
2018-04-24T02:41:35.609Z,10.21
2018-04-24T02:44:03.929Z,10.15
2018-04-24T02:46:32.382Z,10.18
2018-04-24T02:49:00.758Z,10.09
2018-04-24T02:51:29.062Z,10.10
2018-04-24T02:53:57.397Z,9.99
2018-04-24T02:56:26.100Z,9.88
2018-04-24T02:58:54.452Z,9.79
2018-04-24T03:01:22.748Z,9.72
2018-04-24T03:03:51.054Z,9.69
2018-04-24T03:06:19.417Z,9.66
2018-04-24T03:08:47.785Z,9.64
2018-04-24T03:11:16.608Z,9.62
2018-04-24T03:13:44.973Z,9.56
2018-04-24T03:16:13.311Z,9.64
2018-04-24T03:18:41.663Z,9.70
2018-04-24T03:21:12.408Z,9.60
2018-04-24T03:23:40.794Z,9.62
2018-04-24T03:26:09.631Z,9.66
2018-04-24T03:28:37.969Z,9.57
2018-04-24T03:31:06.337Z,9.53
2018-04-24T03:33:34.717Z,9.48
2018-04-24T03:36:03.161Z,9.48
2018-04-24T03:38:31.566Z,9.43
2018-04-24T03:41:00.702Z,9.45
2018-04-24T03:43:29.007Z,9.34
2018-04-24T03:45:57.352Z,9.27
2018-04-24T03:48:25.693Z,9.21
2018-04-24T03:50:54.008Z,9.22
2018-04-24T03:53:22.356Z,9.27
2018-04-24T03:55:50.698Z,9.29
2018-04-24T03:58:19.018Z,9.27
2018-04-24T04:00:47.378Z,9.27
2018-04-24T04:03:17.006Z,9.24
2018-04-24T04:05:45.346Z,9.33
2018-04-24T04:08:13.706Z,9.36
2018-04-24T04:10:42.074Z,9.35
2018-04-24T04:13:10.418Z,9.38
2018-04-24T04:15:38.729Z,9.45
2018-04-24T04:18:24.753Z,9.47
2018-04-24T04:21:11.346Z,9.55
2018-04-24T04:23:58.122Z,9.62
2018-04-24T04:26:26.466Z,9.76
2018-04-24T04:28:55.551Z,9.86
2018-04-24T04:31:23.907Z,9.98
2018-04-24T04:33:52.254Z,10.10
2018-04-24T04:36:20.596Z,10.22
2018-04-24T04:38:49.714Z,10.34
2018-04-24T04:41:18.039Z,10.45
2018-04-24T04:43:46.379Z,10.55
2018-04-24T04:46:14.716Z,10.65
2018-04-24T04:48:43.847Z,10.74
2018-04-24T04:51:12.230Z,10.83
2018-04-24T04:53:40.606Z,10.94
2018-04-24T04:56:09.053Z,11.07
2018-04-24T04:58:37.321Z,11.20
2018-04-24T05:01:06.408Z,11.33
2018-04-24T05:03:35.551Z,11.42
2018-04-24T05:06:04.271Z,11.55
2018-04-24T05:08:32.615Z,11.43
2018-04-24T05:11:00.956Z,11.96
2018-04-24T05:13:29.282Z,12.25
2018-04-24T05:15:57.628Z,12.57
2018-04-24T05:18:25.967Z,12.91
2018-04-24T05:20:55.028Z,13.12
2018-04-24T05:23:23.392Z,13.34
2018-04-24T05:25:51.742Z,13.46
2018-04-24T05:28:20.072Z,13.50
2018-04-24T05:30:48.440Z,13.49
2018-04-24T05:33:16.765Z,13.21
2018-04-24T05:35:45.877Z,13.02
2018-04-24T05:38:14.274Z,13.07
2018-04-24T05:40:42.609Z,13.20
2018-04-24T05:43:11.694Z,13.28
2018-04-24T05:45:46.759Z,13.32
2018-04-24T05:48:15.200Z,13.46
2018-04-24T05:50:43.693Z,13.69
2018-04-24T05:53:12.068Z,13.96
2018-04-24T05:55:40.532Z,14.27
2018-04-24T05:58:08.856Z,14.43
2018-04-24T06:00:37.189Z,14.59
2018-04-24T06:03:05.617Z,14.64
2018-04-24T06:05:34.831Z,14.58
2018-04-24T06:08:03.230Z,14.82
2018-04-24T06:10:31.802Z,14.99
2018-04-24T06:13:00.757Z,15.22
2018-04-24T06:15:29.124Z,15.40
2018-04-24T06:18:01.369Z,15.42
2018-04-24T06:20:29.773Z,15.88
2018-04-24T06:22:59.479Z,16.19
2018-04-24T06:25:27.889Z,16.69
2018-04-24T06:27:56.264Z,16.97
2018-04-24T06:30:25.148Z,16.47
2018-04-24T06:32:53.501Z,16.56
2018-04-24T06:35:23.392Z,16.64
2018-04-24T06:37:51.784Z,16.70
2018-04-24T06:40:20.924Z,16.76
2018-04-24T06:42:49.252Z,16.82
2018-04-24T06:45:17.669Z,16.68
2018-04-24T06:47:45.999Z,16.68
2018-04-24T06:50:14.829Z,16.98
2018-04-24T06:52:43.166Z,17.04
2018-04-24T06:55:11.518Z,17.44
2018-04-24T06:57:39.868Z,17.78
2018-04-24T07:00:08.295Z,17.77
2018-04-24T07:02:36.660Z,17.99
2018-04-24T07:05:05.020Z,17.64
2018-04-24T07:07:33.400Z,17.77
2018-04-24T07:10:01.736Z,17.84
2018-04-24T07:12:30.832Z,17.80
2018-04-24T07:14:59.977Z,17.91
2018-04-24T07:17:28.533Z,17.82
2018-04-24T07:19:56.908Z,17.52
2018-04-24T07:22:25.656Z,17.32
2018-04-24T07:24:53.982Z,17.51
2018-04-24T07:27:22.346Z,17.52
2018-04-24T07:29:50.696Z,17.38
2018-04-24T07:32:19.060Z,17.27
2018-04-24T07:34:47.474Z,17.06
2018-04-24T07:37:17.284Z,17.09
2018-04-24T07:39:46.405Z,17.08
2018-04-24T07:42:14.741Z,17.25
2018-04-24T07:44:43.889Z,17.45
2018-04-24T07:47:12.248Z,17.66
2018-04-24T07:49:40.623Z,17.76
2018-04-24T07:52:08.990Z,18.00
2018-04-24T07:54:37.395Z,18.12
2018-04-24T07:57:06.531Z,18.53
2018-04-24T07:59:34.887Z,19.12
2018-04-24T08:02:03.235Z,19.23
2018-04-24T08:04:31.593Z,19.03
2018-04-24T08:07:00.702Z,19.03
2018-04-24T08:09:29.072Z,19.09
2018-04-24T08:11:58.184Z,17.99
2018-04-24T08:14:26.553Z,18.02
2018-04-24T08:16:54.886Z,18.64
2018-04-24T08:19:23.252Z,19.34
2018-04-24T08:21:57.139Z,19.73
2018-04-24T08:24:26.275Z,20.02
2018-04-24T08:26:54.594Z,20.40
2018-04-24T08:29:22.946Z,20.49
2018-04-24T08:31:52.057Z,20.28
2018-04-24T08:34:20.422Z,20.31
2018-04-24T08:36:49.531Z,20.47
2018-04-24T08:39:17.909Z,20.55
2018-04-24T08:41:46.271Z,20.49
2018-04-24T08:44:15.398Z,20.69
2018-04-24T08:46:43.735Z,20.77
2018-04-24T08:49:12.134Z,20.94
2018-04-24T08:51:41.223Z,21.00
2018-04-24T08:54:10.444Z,20.82
2018-04-24T08:56:38.740Z,20.39
2018-04-24T08:59:07.068Z,20.67
2018-04-24T09:01:36.194Z,20.76
2018-04-24T09:04:04.574Z,20.70
2018-04-24T09:06:32.908Z,20.67
2018-04-24T09:09:01.261Z,20.36
2018-04-24T09:11:29.591Z,20.47
2018-04-24T09:13:57.969Z,20.47
2018-04-24T09:16:26.277Z,20.86
2018-04-24T09:18:54.636Z,20.54
2018-04-24T09:21:22.971Z,20.99
2018-04-24T09:23:51.334Z,21.31
2018-04-24T09:26:19.698Z,21.13
2018-04-24T09:28:48.042Z,21.39
2018-04-24T09:31:16.413Z,21.97
2018-04-24T09:33:44.810Z,22.15
2018-04-24T09:36:13.896Z,21.73
2018-04-24T09:38:42.243Z,21.38
2018-04-24T09:41:11.389Z,21.54
2018-04-24T09:43:39.741Z,21.39
2018-04-24T09:46:08.095Z,21.37
2018-04-24T09:48:37.179Z,21.75
2018-04-24T09:51:06.321Z,21.87
2018-04-24T09:53:34.648Z,21.63
2018-04-24T09:56:03.036Z,21.51
2018-04-24T09:58:32.138Z,21.40
2018-04-24T10:01:01.251Z,21.35
2018-04-24T10:03:29.603Z,21.52
2018-04-24T10:05:57.919Z,21.48
2018-04-24T10:08:27.048Z,21.53
2018-04-24T10:10:55.360Z,21.66
2018-04-24T10:13:24.528Z,21.65
2018-04-24T10:15:52.823Z,21.73
2018-04-24T10:18:21.119Z,21.85
2018-04-24T10:20:50.261Z,21.95
2018-04-24T10:23:18.608Z,22.22
2018-04-24T10:25:46.962Z,22.34
2018-04-24T10:28:16.061Z,22.64
2018-04-24T10:30:45.203Z,22.69
2018-04-24T10:33:13.520Z,22.55
2018-04-24T10:35:41.880Z,21.85
2018-04-24T10:38:10.195Z,22.27
2018-04-24T10:40:38.962Z,22.78
2018-04-24T10:43:08.093Z,22.63
2018-04-24T10:45:36.391Z,22.80
2018-04-24T10:48:04.818Z,22.97
2018-04-24T10:50:33.081Z,22.94
2018-04-24T10:53:01.458Z,22.95
2018-04-24T10:55:29.793Z,23.09
2018-04-24T10:57:58.146Z,23.30
2018-04-24T11:00:26.490Z,23.68
2018-04-24T11:02:54.854Z,23.52
2018-04-24T11:05:23.170Z,24.01
2018-04-24T11:07:52.280Z,23.97
2018-04-24T11:10:20.615Z,24.07
2018-04-24T11:12:48.985Z,23.58
2018-04-24T11:15:17.317Z,23.55
2018-04-24T11:17:46.440Z,23.38
2018-04-24T11:20:14.840Z,23.71
2018-04-24T11:22:43.173Z,23.68
2018-04-24T11:25:11.521Z,24.08
2018-04-24T11:27:40.228Z,23.95
2018-04-24T11:30:08.558Z,23.96
2018-04-24T11:32:36.910Z,23.72
2018-04-24T11:35:05.375Z,23.28
2018-04-24T11:37:33.677Z,23.81
2018-04-24T11:40:02.034Z,23.57
2018-04-24T11:42:30.518Z,23.24
2018-04-24T11:44:58.881Z,23.26
2018-04-24T11:47:27.256Z,23.22
2018-04-24T11:49:55.609Z,23.04
2018-04-24T11:52:24.691Z,22.68
2018-04-24T11:54:53.043Z,22.64
2018-04-24T11:57:21.405Z,22.76
2018-04-24T11:59:49.737Z,22.65
2018-04-24T12:02:18.868Z,22.36
2018-04-24T12:04:47.231Z,22.68
2018-04-24T12:07:15.628Z,22.56
2018-04-24T12:09:44.080Z,22.87
2018-04-24T12:12:13.224Z,22.74
2018-04-24T12:14:41.595Z,22.85
2018-04-24T12:17:09.936Z,23.10
2018-04-24T12:19:38.300Z,22.98
2018-04-24T12:22:07.394Z,22.73
2018-04-24T12:24:36.525Z,22.46
2018-04-24T12:27:04.847Z,22.09
2018-04-24T12:29:33.205Z,21.99
2018-04-24T12:32:01.575Z,21.64
2018-04-24T12:34:29.906Z,21.18
2018-04-24T12:36:59.010Z,21.18
2018-04-24T12:39:27.353Z,21.11
2018-04-24T12:41:55.731Z,21.05
2018-04-24T12:44:24.045Z,20.67
2018-04-24T12:46:53.147Z,20.52
2018-04-24T12:49:21.500Z,20.22
2018-04-24T12:51:50.618Z,20.25
2018-04-24T12:54:19.118Z,20.26
2018-04-24T12:56:48.213Z,20.08
2018-04-24T12:59:16.590Z,20.14
2018-04-24T13:01:44.913Z,20.19
2018-04-24T13:04:13.258Z,19.75
2018-04-24T13:06:41.624Z,19.16
2018-04-24T13:09:09.945Z,18.61
2018-04-24T13:11:38.261Z,18.48
2018-04-24T13:14:06.617Z,18.28
2018-04-24T13:16:35.769Z,18.15
2018-04-24T13:19:04.089Z,18.14
2018-04-24T13:21:33.192Z,18.31
2018-04-24T13:24:02.272Z,18.43
2018-04-24T13:26:30.638Z,18.21
2018-04-24T13:28:58.978Z,18.17
2018-04-24T13:31:27.340Z,18.19
2018-04-24T13:33:55.666Z,18.36
2018-04-24T13:36:24.004Z,18.48
2018-04-24T13:38:53.141Z,18.46
2018-04-24T13:41:21.508Z,18.48
2018-04-24T13:43:49.850Z,18.69
2018-04-24T13:46:18.177Z,18.72
2018-04-24T13:48:46.577Z,18.72
2018-04-24T13:51:14.865Z,18.83
2018-04-24T13:53:43.266Z,19.11
2018-04-24T13:56:12.361Z,19.30
2018-04-24T13:58:40.711Z,18.93
2018-04-24T14:01:09.813Z,18.83
2018-04-24T14:03:38.159Z,18.74
2018-04-24T14:06:06.497Z,18.74
2018-04-24T14:08:34.837Z,18.63
2018-04-24T14:11:03.201Z,18.29
2018-04-24T14:13:32.316Z,18.12
2018-04-24T14:16:00.761Z,17.87
2018-04-24T14:18:29.114Z,17.79
2018-04-24T14:20:57.482Z,17.69
2018-04-24T14:23:25.819Z,17.57
2018-04-24T14:25:54.929Z,17.54
2018-04-24T14:28:23.269Z,17.35
2018-04-24T14:30:51.625Z,17.28
2018-04-24T14:33:19.987Z,17.20
2018-04-24T14:35:49.199Z,17.20
2018-04-24T14:38:17.557Z,17.14
2018-04-24T14:40:45.933Z,17.06
2018-04-24T14:43:14.256Z,17.07
2018-04-24T14:45:42.597Z,17.03
2018-04-24T14:48:10.956Z,16.88
2018-04-24T14:50:39.308Z,16.85
2018-04-24T14:53:07.647Z,16.55
2018-04-24T14:55:35.969Z,16.60
2018-04-24T14:58:05.063Z,16.72
2018-04-24T15:00:34.148Z,16.85
2018-04-24T15:03:03.292Z,16.91
2018-04-24T15:05:32.205Z,16.88
2018-04-24T15:08:00.561Z,16.89
2018-04-24T15:10:28.938Z,16.96
2018-04-24T15:12:57.292Z,17.14
2018-04-24T15:15:25.613Z,17.24
2018-04-24T15:17:53.960Z,17.39
2018-04-24T15:20:22.275Z,17.56
2018-04-24T15:22:50.622Z,17.21
2018-04-24T15:25:18.973Z,17.24
2018-04-24T15:27:47.322Z,17.42
2018-04-24T15:30:16.443Z,17.57
2018-04-24T15:32:44.781Z,17.86
2018-04-24T15:35:13.166Z,18.08
2018-04-24T15:37:42.278Z,17.96
2018-04-24T15:40:11.416Z,18.00
2018-04-24T15:42:40.537Z,18.16
2018-04-24T15:45:08.907Z,18.38
2018-04-24T15:47:37.232Z,18.59
2018-04-24T15:50:06.366Z,18.70
2018-04-24T15:52:34.736Z,18.74
2018-04-24T15:55:03.114Z,18.55
2018-04-24T15:57:31.497Z,18.56
2018-04-24T15:59:59.847Z,18.35
2018-04-24T16:02:28.209Z,18.13
2018-04-24T16:04:57.353Z,18.17
2018-04-24T16:07:25.711Z,18.15
2018-04-24T16:09:54.029Z,17.93
2018-04-24T16:12:23.147Z,17.78
2018-04-24T16:14:51.484Z,17.81
2018-04-24T16:17:19.835Z,17.91
2018-04-24T16:19:48.164Z,17.53
2018-04-24T16:22:16.575Z,17.33
2018-04-24T16:24:45.713Z,17.30
2018-04-24T16:27:14.104Z,17.20
2018-04-24T16:29:43.193Z,17.23
2018-04-24T16:32:11.483Z,17.22
2018-04-24T16:34:39.835Z,17.10
2018-04-24T16:37:08.142Z,16.77
2018-04-24T16:39:36.584Z,16.57
2018-04-24T16:42:04.910Z,16.39
2018-04-24T16:44:33.263Z,16.30
2018-04-24T16:47:01.604Z,16.34
2018-04-24T16:49:29.936Z,16.36
2018-04-24T16:51:58.313Z,16.40
2018-04-24T16:54:26.767Z,16.33
2018-04-24T16:56:55.092Z,16.32
2018-04-24T16:59:24.653Z,16.32
2018-04-24T17:01:54.384Z,16.33
2018-04-24T17:04:22.695Z,16.18
2018-04-24T17:06:51.904Z,16.09
2018-04-24T17:09:21.440Z,16.09
2018-04-24T17:11:49.784Z,15.98
2018-04-24T17:14:18.488Z,15.93
2018-04-24T17:16:46.969Z,15.92
2018-04-24T17:19:16.765Z,15.99
2018-04-24T17:21:45.977Z,16.09
2018-04-24T17:24:14.382Z,16.16
2018-04-24T17:26:42.698Z,16.20
2018-04-24T17:29:11.814Z,16.12
2018-04-24T17:31:40.123Z,16.08
2018-04-24T17:34:08.545Z,16.07
2018-04-24T17:36:37.791Z,15.94
2018-04-24T17:39:07.790Z,15.78
2018-04-24T17:41:36.132Z,15.50
2018-04-24T17:44:05.287Z,15.22
2018-04-24T17:46:33.627Z,15.03
2018-04-24T17:49:02.620Z,14.87
2018-04-24T17:51:30.942Z,14.72
2018-04-24T17:54:00.083Z,14.55
2018-04-24T17:56:28.579Z,14.50
2018-04-24T17:58:56.925Z,14.44
2018-04-24T18:01:25.540Z,14.33
2018-04-24T18:03:55.133Z,14.19
2018-04-24T18:06:25.705Z,14.05
2018-04-24T18:08:54.072Z,13.97
2018-04-24T18:11:22.486Z,13.94
2018-04-24T18:13:51.558Z,13.94
2018-04-24T18:16:19.978Z,13.92
2018-04-24T18:18:49.130Z,13.89
2018-04-24T18:21:17.511Z,13.81
2018-04-24T18:23:45.871Z,13.72
2018-04-24T18:26:14.209Z,13.67
2018-04-24T18:28:44.421Z,13.63
2018-04-24T18:31:13.016Z,13.62
2018-04-24T18:33:42.302Z,13.59
2018-04-24T18:36:10.830Z,13.58
2018-04-24T18:38:39.220Z,13.52
2018-04-24T18:41:07.579Z,13.46
2018-04-24T18:43:35.927Z,13.39
2018-04-24T18:46:05.096Z,13.26
2018-04-24T18:48:33.460Z,13.13
2018-04-24T18:51:01.821Z,13.02
2018-04-24T18:53:31.099Z,12.88
2018-04-24T18:55:59.515Z,12.76
2018-04-24T18:58:28.721Z,12.72
2018-04-24T19:00:57.946Z,12.66
2018-04-24T19:03:26.966Z,12.57
2018-04-24T19:05:55.324Z,12.45
2018-04-24T19:08:24.592Z,12.34
2018-04-24T19:10:52.938Z,12.25
2018-04-24T19:13:21.383Z,12.18
2018-04-24T19:15:49.700Z,12.12
2018-04-24T19:18:18.078Z,12.04
2018-04-24T19:20:46.422Z,11.96
2018-04-24T19:23:15.513Z,11.91
2018-04-24T19:25:43.906Z,11.92
2018-04-24T19:28:12.310Z,11.87
2018-04-24T19:30:41.491Z,11.81
2018-04-24T19:33:09.860Z,11.80
2018-04-24T19:35:38.307Z,11.75
2018-04-24T19:38:06.714Z,11.72
2018-04-24T19:40:41.155Z,11.71
2018-04-24T19:43:09.539Z,11.64
2018-04-24T19:45:37.958Z,11.56
2018-04-24T19:48:06.357Z,11.51
2018-04-24T19:50:34.680Z,11.45
2018-04-24T19:53:03.133Z,11.40
2018-04-24T19:55:31.453Z,11.34
2018-04-24T19:57:59.844Z,11.30
2018-04-24T20:00:28.186Z,11.26
2018-04-24T20:02:56.538Z,11.24
2018-04-24T20:05:26.347Z,11.19
2018-04-24T20:07:55.461Z,11.13
2018-04-24T20:10:23.851Z,11.12
2018-04-24T20:12:52.242Z,11.16
2018-04-24T20:15:21.016Z,11.09
2018-04-24T20:17:49.397Z,11.08
2018-04-24T20:20:17.749Z,11.01
2018-04-24T20:22:46.908Z,10.99
2018-04-24T20:25:15.269Z,10.90
2018-04-24T20:27:43.736Z,10.84
2018-04-24T20:30:12.064Z,10.83
2018-04-24T20:32:41.200Z,10.81
2018-04-24T20:35:09.543Z,10.79
2018-04-24T20:37:38.717Z,10.76
2018-04-24T20:40:08.551Z,10.74
2018-04-24T20:42:37.685Z,10.73
2018-04-24T20:45:07.153Z,10.74
2018-04-24T20:47:36.664Z,10.79
2018-04-24T20:50:05.760Z,10.75
2018-04-24T20:52:34.119Z,10.74
2018-04-24T20:55:02.491Z,10.74
2018-04-24T20:57:30.868Z,10.75
2018-04-24T21:00:01.584Z,10.73
2018-04-24T21:02:29.942Z,10.69
2018-04-24T21:05:01.384Z,10.62
2018-04-24T21:21:20.119Z,10.53
2018-04-24T21:23:49.070Z,10.49
2018-04-24T21:26:17.393Z,10.51
2018-04-24T21:28:45.762Z,10.49
2018-04-24T21:31:14.081Z,10.49
2018-04-24T21:33:42.452Z,10.52
2018-04-24T21:36:13.773Z,10.62
2018-04-24T21:38:43.032Z,10.69
2018-04-24T21:41:11.875Z,10.85
2018-04-24T21:43:41.649Z,10.96
2018-04-24T21:46:10.805Z,11.01
2018-04-24T21:48:39.387Z,11.08
2018-04-24T21:51:07.865Z,11.15
2018-04-24T21:53:38.455Z,11.20
2018-04-24T21:56:08.005Z,11.27
2018-04-24T21:58:36.736Z,11.36
2018-04-24T22:01:07.723Z,11.41
2018-04-24T22:03:37.904Z,11.44
2018-04-24T22:06:06.277Z,11.47
2018-04-24T22:08:34.745Z,11.45
2018-04-24T22:11:04.662Z,11.45
2018-04-24T22:13:33.122Z,11.46
2018-04-24T22:16:02.021Z,11.46
2018-04-24T22:18:32.169Z,11.48
2018-04-24T22:21:01.461Z,11.47
2018-04-24T22:23:29.725Z,11.49
2018-04-24T22:26:05.348Z,11.53
2018-04-24T22:28:33.773Z,11.57
2018-04-24T22:31:06.921Z,11.61
2018-04-24T22:33:35.938Z,11.66
2018-04-24T22:36:05.179Z,11.71
2018-04-24T22:38:38.214Z,11.79
2018-04-24T22:41:09.222Z,11.86
2018-04-24T22:43:38.235Z,11.88
2018-04-24T22:46:06.746Z,11.93
2018-04-24T22:48:35.133Z,11.95
2018-04-24T22:51:03.473Z,11.96
2018-04-24T22:53:31.840Z,11.98
2018-04-24T22:56:00.952Z,12.01
2018-04-24T22:58:30.095Z,12.04
2018-04-24T23:00:58.453Z,12.06
2018-04-24T23:03:26.781Z,12.08
2018-04-24T23:05:55.165Z,12.11
2018-04-24T23:08:23.485Z,12.12
2018-04-24T23:11:09.620Z,12.12
2018-04-24T23:13:55.636Z,12.12
2018-04-24T23:16:41.681Z,12.11
2018-04-24T23:19:27.747Z,12.09
2018-04-24T23:21:55.296Z,12.09
2018-04-24T23:24:24.450Z,12.08
2018-04-24T23:26:52.790Z,12.09
2018-04-24T23:29:22.760Z,12.11
2018-04-24T23:31:51.097Z,12.12
2018-04-24T23:34:19.561Z,12.09
2018-04-24T23:36:47.988Z,12.05
2018-04-24T23:39:16.326Z,12.01
2018-04-24T23:41:47.011Z,11.97
2018-04-24T23:44:15.333Z,11.93
2018-04-24T23:46:43.725Z,11.90
2018-04-24T23:49:12.546Z,11.86
2018-04-24T23:51:40.914Z,11.85
2018-04-24T23:54:09.421Z,11.87
2018-04-24T23:56:37.944Z,11.89
2018-04-24T23:59:07.223Z,11.89
